X  ZamknijMetar - Lotnicze dane pogodowe     EPKT Katowice International

Temperatura

18°C Temperatura

-7°C Punkt rosy

18% Wilgotność



Wiatr

13 km/h

 8 MPH

 4 m/s

 7 KTS



230°
SW
Obecne warunki

Bezchmurnie Bezchmurnie
Ciśnienie 1029.92 (hPa) - 30.41 (in)
Widoczność 6.2 (mi) - 10 (km)
Lotnisko
Kod lotniska EPKT

Lokalizacja Katowice International 23 (km)

Metar:
EPKT 071630Z 23007KT CAVOK 18/M07 Q1030

Czas: 07-04-2020 18:30